VLSK

Savannakhet Airport

Lao People’s Democratic Republic
TAF VLSK 241700Z 2418/2518 22004KT 4000 BR FEW016 SCT040 SCT100 TEMPO 2501/2506 8000 SCT016 SCT100
Issued Valid From Valid To
Sep-24 @ 17:00 UTC
(3 hours ago)
Sep-24 @ 18:00 UTC
(2 hours ago)
Sep-25 @ 18:00 UTC
(in 22 hours)
Sep-24 @ 18:00 to Sep-25 @ 18:00
TAF VLSK 241700Z 2418/2518 22004KT 4000 BR FEW016 SCT040 SCT100
Wind Visibility Clouds Conditions
220° at 4 knots 4,007 meters
  • Few at 1,600' AGL
  • Scattered at 4,000' AGL
  • Scattered at 10,000' AGL
  • Mist
Temporary Sep-25 @ 01:00 to Sep-25 @ 06:00
TEMPO 2501/2506 8000 SCT016 SCT100
Visibility Clouds
7,998 meters
  • Scattered at 1,600' AGL
  • Scattered at 10,000' AGL
TAF VLSK 241700Z 2418/2518 22004KT 4000 BR FEW016 SCT040 SCT100 TEMPO 2501/2506 8000 SCT016 SCT100
Issued Sep-24 @ 17:00 UTC
(3 hours ago)
Valid From Sep-24 @ 18:00 UTC
(2 hours ago)
Valid To Sep-25 @ 18:00 UTC
(in 22 hours)
Sep-24 @ 18:00 - Sep-25 @ 18:00
Wind Visibility
220° at 4 knots 4,007 meters
Clouds
  • Few at 1,600' AGL
  • Scattered at 4,000' AGL
  • Scattered at 10,000' AGL
Conditions
  • Mist
Temporary Sep-25 @ 01:00 - Sep-25 @ 06:00
Clouds
  • Scattered at 1,600' AGL
  • Scattered at 10,000' AGL